Time;durP1;ratioP1;P1;durP2;ratioP2;P2;SDS_P1;SDS_P2;PMS_P1;PMS_P2;Temp;Humidity;BMP_temperature;BMP_pressure;BME280_temperature;BME280_humidity;BME280_pressure;Samples;Min_cycle;Max_cycle;Signal;HPM_P1;HPM_P2
2021/01/25 00:00:47;;;;;;;1.58;1.02;;;;;;;;;;5128829;28;20038;-66
2021/01/25 00:03:13;;;;;;;0.70;0.70;;;;;;;;;;5127546;28;20019;-66
2021/01/25 00:05:39;;;;;;;0.80;0.80;;;;;;;;;;5126975;28;20043;-66
2021/01/25 00:08:05;;;;;;;0.80;0.75;;;;;;;;;;5127176;28;20031;-66
2021/01/25 00:10:31;;;;;;;0.93;0.90;;;;;;;;;;5128001;28;20118;-66
2021/01/25 00:12:57;;;;;;;0.80;0.80;;;;;;;;;;5128875;28;20023;-66
2021/01/25 00:15:23;;;;;;;0.60;0.60;;;;;;;;;;5127114;28;20080;-66
2021/01/25 00:17:50;;;;;;;0.70;0.70;;;;;;;;;;5127731;28;20027;-66
2021/01/25 00:20:16;;;;;;;0.75;0.73;;;;;;;;;;5128431;28;20026;-66
2021/01/25 00:22:42;;;;;;;1.10;0.70;;;;;;;;;;5110199;28;20385;-66
2021/01/25 00:25:08;;;;;;;2.80;1.38;;;;;;;;;;5127459;28;20523;-66
2021/01/25 00:27:34;;;;;;;1.05;0.98;;;;;;;;;;5127973;28;20126;-66
2021/01/25 00:30:00;;;;;;;0.90;0.90;;;;;;;;;;5126890;28;20022;-66
2021/01/25 00:32:26;;;;;;;1.48;1.10;;;;;;;;;;5127929;28;20400;-66
2021/01/25 00:34:52;;;;;;;1.55;1.45;;;;;;;;;;5128029;28;20027;-66
2021/01/25 00:37:18;;;;;;;0.90;0.90;;;;;;;;;;5126643;27;20026;-66
2021/01/25 00:39:44;;;;;;;1.13;0.70;;;;;;;;;;5131987;27;20112;-66
2021/01/25 00:42:11;;;;;;;1.80;1.42;;;;;;;;;;5130665;27;20034;-66
2021/01/25 00:44:37;;;;;;;1.10;1.00;;;;;;;;;;5131431;27;20038;-66
2021/01/25 00:47:03;;;;;;;0.93;0.85;;;;;;;;;;5130644;27;20089;-66
2021/01/25 00:49:29;;;;;;;1.30;1.25;;;;;;;;;;5130301;27;20334;-66
2021/01/25 00:51:55;;;;;;;1.67;1.42;;;;;;;;;;5131667;27;20019;-66
2021/01/25 00:54:21;;;;;;;0.93;0.82;;;;;;;;;;5131444;27;20038;-66
2021/01/25 00:56:50;;;;;;;1.40;1.10;;;;;;;;;;5130512;27;20141;-66
2021/01/25 00:59:16;;;;;;;0.77;0.65;;;;;;;;;;5140208;27;20519;-66
2021/01/25 01:01:42;;;;;;;1.10;1.00;;;;;;;;;;5152547;27;20015;-66
2021/01/25 01:04:08;;;;;;;1.63;1.00;;;;;;;;;;5152504;27;20492;-66
2021/01/25 01:06:35;;;;;;;1.58;0.70;;;;;;;;;;5150269;27;20038;-66
2021/01/25 01:09:01;;;;;;;1.27;0.90;;;;;;;;;;5152634;27;20404;-66
2021/01/25 01:11:27;;;;;;;1.33;1.10;;;;;;;;;;5151706;27;20019;-66
2021/01/25 01:13:53;;;;;;;1.25;0.80;;;;;;;;;;5152481;27;20031;-66
2021/01/25 01:16:19;;;;;;;0.82;0.70;;;;;;;;;;5151773;27;20096;-66
2021/01/25 01:18:45;;;;;;;1.75;0.90;;;;;;;;;;5151942;27;20023;-66
2021/01/25 01:21:11;;;;;;;0.90;0.90;;;;;;;;;;5145405;27;20560;-66
2021/01/25 01:23:37;;;;;;;1.45;0.93;;;;;;;;;;5130944;27;20581;-66
2021/01/25 01:26:03;;;;;;;2.72;1.85;;;;;;;;;;5130416;27;20035;-66
2021/01/25 01:28:29;;;;;;;1.00;1.00;;;;;;;;;;5130767;27;20059;-66
2021/01/25 01:30:55;;;;;;;0.88;0.60;;;;;;;;;;5131666;27;20080;-66
2021/01/25 01:33:21;;;;;;;0.85;0.80;;;;;;;;;;5130189;27;20034;-66
2021/01/25 01:35:47;;;;;;;1.10;0.75;;;;;;;;;;5130533;27;20074;-66
2021/01/25 01:38:13;;;;;;;0.95;0.90;;;;;;;;;;5129797;27;20031;-66
2021/01/25 01:40:39;;;;;;;0.82;0.82;;;;;;;;;;5130575;27;20079;-66
2021/01/25 01:43:05;;;;;;;0.80;0.60;;;;;;;;;;5131039;27;20027;-66
2021/01/25 01:45:31;;;;;;;1.10;0.98;;;;;;;;;;5129531;27;20033;-66
2021/01/25 01:47:58;;;;;;;0.70;0.70;;;;;;;;;;5130749;27;20045;-66
2021/01/25 01:50:24;;;;;;;0.57;0.57;;;;;;;;;;5129314;27;20461;-66
2021/01/25 01:52:51;;;;;;;0.82;0.80;;;;;;;;;;5130297;27;20126;-66
2021/01/25 01:55:18;;;;;;;1.30;1.08;;;;;;;;;;5130134;27;20118;-66
2021/01/25 01:57:45;;;;;;;0.77;0.77;;;;;;;;;;5130494;27;20033;-66
2021/01/25 02:00:13;;;;;;;0.75;0.75;;;;;;;;;;5131347;27;20054;-66
2021/01/25 02:02:39;;;;;;;1.60;1.02;;;;;;;;;;5130093;27;20389;-66
2021/01/25 02:05:06;;;;;;;0.98;0.98;;;;;;;;;;5129816;27;20057;-66
2021/01/25 02:07:32;;;;;;;0.40;0.32;;;;;;;;;;5127529;27;20047;-66
2021/01/25 02:10:00;;;;;;;1.05;1.02;;;;;;;;;;5129978;27;20328;-66
2021/01/25 02:12:26;;;;;;;0.82;0.82;;;;;;;;;;5129516;27;20027;-66
2021/01/25 02:14:52;;;;;;;0.50;0.50;;;;;;;;;;5130268;27;20452;-66
2021/01/25 02:17:18;;;;;;;0.50;0.50;;;;;;;;;;5129420;27;20015;-66
2021/01/25 02:19:51;;;;;;;1.00;0.90;;;;;;;;;;5129731;27;20019;-66
2021/01/25 02:22:29;;;;;;;0.40;0.40;;;;;;;;;;5129921;27;20338;-66
2021/01/25 02:25:02;;;;;;;0.55;0.55;;;;;;;;;;5129247;27;20023;-66
2021/01/25 02:27:32;;;;;;;1.17;0.80;;;;;;;;;;5129816;27;20500;-66
2021/01/25 02:29:58;;;;;;;0.95;0.60;;;;;;;;;;5129460;27;20261;-66
2021/01/25 02:32:25;;;;;;;1.02;0.77;;;;;;;;;;5129953;27;20023;-66
2021/01/25 02:34:51;;;;;;;0.50;0.50;;;;;;;;;;5129188;27;20535;-66
2021/01/25 02:37:18;;;;;;;0.93;0.70;;;;;;;;;;5127427;27;20019;-66
2021/01/25 02:39:44;;;;;;;0.75;0.75;;;;;;;;;;5129206;27;20027;-67
2021/01/25 02:42:11;;;;;;;0.50;0.50;;;;;;;;;;5129442;27;20031;-66
2021/01/25 02:44:37;;;;;;;0.52;0.50;;;;;;;;;;5129304;27;20106;-66
2021/01/25 02:47:03;;;;;;;0.85;0.82;;;;;;;;;;5129753;27;20415;-66
2021/01/25 02:49:29;;;;;;;0.77;0.50;;;;;;;;;;5127787;27;20110;-66
2021/01/25 02:51:55;;;;;;;0.88;0.60;;;;;;;;;;5128063;27;20034;-66
2021/01/25 02:54:21;;;;;;;0.52;0.52;;;;;;;;;;5128981;27;20027;-66
2021/01/25 02:56:48;;;;;;;1.23;0.68;;;;;;;;;;5129217;27;20027;-66
2021/01/25 02:59:15;;;;;;;0.70;0.50;;;;;;;;;;5129483;27;20023;-67
2021/01/25 03:01:44;;;;;;;0.52;0.52;;;;;;;;;;5127949;27;20595;-66
2021/01/25 03:04:11;;;;;;;1.00;0.60;;;;;;;;;;5128238;27;20051;-66
2021/01/25 03:06:37;;;;;;;0.50;0.50;;;;;;;;;;5127484;27;20038;-66
2021/01/25 03:09:03;;;;;;;0.70;0.70;;;;;;;;;;5129479;27;20038;-66
2021/01/25 03:11:29;;;;;;;1.20;1.20;;;;;;;;;;5127139;27;20019;-66
2021/01/25 03:14:05;;;;;;;1.00;0.68;;;;;;;;;;5128096;27;20030;-66
2021/01/25 03:16:31;;;;;;;1.38;1.27;;;;;;;;;;5128294;27;21074;-66
2021/01/25 03:18:57;;;;;;;0.60;0.60;;;;;;;;;;5129071;27;20152;-66
2021/01/25 03:21:23;;;;;;;0.60;0.60;;;;;;;;;;5127214;27;20035;-67
2021/01/25 03:23:51;;;;;;;1.45;1.02;;;;;;;;;;5129311;27;20059;-66
2021/01/25 03:26:17;;;;;;;0.30;0.30;;;;;;;;;;5128021;27;20060;-66
2021/01/25 03:28:43;;;;;;;0.63;0.63;;;;;;;;;;5129386;27;20382;-66
2021/01/25 03:31:09;;;;;;;0.93;0.63;;;;;;;;;;5128642;27;20023;-66
2021/01/25 03:33:35;;;;;;;0.73;0.68;;;;;;;;;;5127699;27;20031;-66
2021/01/25 03:36:01;;;;;;;0.80;0.70;;;;;;;;;;5126995;27;20031;-66
2021/01/25 03:38:27;;;;;;;0.80;0.73;;;;;;;;;;5125759;27;20405;-66
2021/01/25 03:40:53;;;;;;;0.88;0.88;;;;;;;;;;5127535;28;20041;-66
2021/01/25 03:43:19;;;;;;;1.77;0.73;;;;;;;;;;5128560;28;20106;-66
2021/01/25 03:45:46;;;;;;;1.17;0.98;;;;;;;;;;5128531;28;20031;-66
2021/01/25 03:48:12;;;;;;;0.60;0.60;;;;;;;;;;5127640;28;20114;-66
2021/01/25 03:50:38;;;;;;;1.00;0.90;;;;;;;;;;5128917;28;20061;-66
2021/01/25 03:53:04;;;;;;;0.75;0.30;;;;;;;;;;5127652;28;20031;-66
2021/01/25 03:55:30;;;;;;;0.73;0.63;;;;;;;;;;5128406;28;20020;-66
2021/01/25 03:57:57;;;;;;;0.47;0.47;;;;;;;;;;5128426;28;20359;-66
2021/01/25 04:00:23;;;;;;;0.43;0.43;;;;;;;;;;5128325;28;20051;-67
2021/01/25 04:02:49;;;;;;;1.10;0.68;;;;;;;;;;5127783;28;20027;-66
2021/01/25 04:05:15;;;;;;;2.05;0.60;;;;;;;;;;5126632;27;20126;-66
2021/01/25 04:07:42;;;;;;;0.63;0.52;;;;;;;;;;5126776;28;20046;-66
2021/01/25 04:10:08;;;;;;;1.10;1.00;;;;;;;;;;5129002;28;20072;-66
2021/01/25 04:12:34;;;;;;;1.17;0.43;;;;;;;;;;5130370;27;20031;-66
2021/01/25 04:15:00;;;;;;;0.60;0.60;;;;;;;;;;5132174;27;20537;-66
2021/01/25 04:17:26;;;;;;;0.63;0.57;;;;;;;;;;5130981;27;20288;-66
2021/01/25 04:19:52;;;;;;;2.80;0.82;;;;;;;;;;5132747;27;20552;-66
2021/01/25 04:22:18;;;;;;;0.50;0.50;;;;;;;;;;5131917;27;20389;-66
2021/01/25 04:24:45;;;;;;;0.60;0.60;;;;;;;;;;5131505;27;20111;-66
2021/01/25 04:27:13;;;;;;;0.68;0.60;;;;;;;;;;5132643;27;20055;-66
2021/01/25 04:29:39;;;;;;;1.23;0.70;;;;;;;;;;5131916;27;20091;-66
2021/01/25 04:32:06;;;;;;;0.50;0.50;;;;;;;;;;5132426;27;20023;-66
2021/01/25 04:34:32;;;;;;;1.45;0.73;;;;;;;;;;5131398;27;20156;-66
2021/01/25 04:36:58;;;;;;;1.05;1.05;;;;;;;;;;5130277;27;20027;-66
2021/01/25 04:39:24;;;;;;;0.85;0.85;;;;;;;;;;5132032;27;20054;-66
2021/01/25 04:41:50;;;;;;;1.20;0.77;;;;;;;;;;5131515;27;20057;-66
2021/01/25 04:44:18;;;;;;;0.82;0.68;;;;;;;;;;5131406;27;20051;-66
2021/01/25 04:46:44;;;;;;;0.25;0.25;;;;;;;;;;5131562;27;20080;-66
2021/01/25 04:49:14;;;;;;;0.70;0.70;;;;;;;;;;5132335;27;20043;-66
2021/01/25 04:51:41;;;;;;;0.57;0.30;;;;;;;;;;5132316;27;20027;-66
2021/01/25 04:54:07;;;;;;;0.63;0.60;;;;;;;;;;5131506;27;20031;-66
2021/01/25 04:56:37;;;;;;;0.98;0.70;;;;;;;;;;5130674;27;20035;-66
2021/01/25 04:59:04;;;;;;;0.73;0.73;;;;;;;;;;5131548;27;20420;-66
2021/01/25 05:01:30;;;;;;;0.68;0.45;;;;;;;;;;5130297;27;20023;-66
2021/01/25 05:03:56;;;;;;;0.20;0.20;;;;;;;;;;5132469;27;20019;-66
2021/01/25 05:06:22;;;;;;;0.50;0.50;;;;;;;;;;5150747;27;20027;-66
2021/01/25 05:08:48;;;;;;;0.73;0.45;;;;;;;;;;5151146;27;20507;-66
2021/01/25 05:11:14;;;;;;;0.47;0.47;;;;;;;;;;5151485;27;20022;-66
2021/01/25 05:13:40;;;;;;;1.42;0.88;;;;;;;;;;5152113;27;20029;-66
2021/01/25 05:16:16;;;;;;;0.80;0.55;;;;;;;;;;5152271;27;20023;-66
2021/01/25 05:18:42;;;;;;;0.65;0.60;;;;;;;;;;5151672;27;20018;-66
2021/01/25 05:21:08;;;;;;;0.20;0.20;;;;;;;;;;5144313;27;20034;-66
2021/01/25 05:23:38;;;;;;;0.95;0.65;;;;;;;;;;5129117;27;20031;-66
2021/01/25 05:26:05;;;;;;;0.65;0.52;;;;;;;;;;5130952;27;20035;-66
2021/01/25 05:28:38;;;;;;;0.50;0.50;;;;;;;;;;5131020;27;20779;-66
2021/01/25 05:31:04;;;;;;;2.07;0.37;;;;;;;;;;5130030;27;20465;-66
2021/01/25 05:33:34;;;;;;;0.65;0.43;;;;;;;;;;5130813;27;20272;-66
2021/01/25 05:36:00;;;;;;;0.55;0.55;;;;;;;;;;5129514;27;20371;-66
2021/01/25 05:38:26;;;;;;;0.55;0.45;;;;;;;;;;5129780;27;20524;-66
2021/01/25 05:40:56;;;;;;;0.40;0.40;;;;;;;;;;5129756;27;20055;-66
2021/01/25 05:43:30;;;;;;;0.30;0.30;;;;;;;;;;5130305;27;20031;-66
2021/01/25 05:46:05;;;;;;;0.98;0.47;;;;;;;;;;5130810;27;20023;-66
2021/01/25 05:48:31;;;;;;;0.30;0.30;;;;;;;;;;5128985;27;20062;-66
2021/01/25 05:50:57;;;;;;;0.50;0.30;;;;;;;;;;5130723;27;20470;-66
2021/01/25 05:53:23;;;;;;;0.75;0.47;;;;;;;;;;5128923;27;20035;-66
2021/01/25 05:55:50;;;;;;;0.40;0.40;;;;;;;;;;5129371;27;20115;-66
2021/01/25 05:58:16;;;;;;;0.38;0.38;;;;;;;;;;5130563;27;20034;-67
2021/01/25 06:00:43;;;;;;;0.80;0.50;;;;;;;;;;5131176;27;20027;-66
2021/01/25 06:03:09;;;;;;;0.52;0.52;;;;;;;;;;5130148;27;20566;-66
2021/01/25 06:05:38;;;;;;;1.23;0.85;;;;;;;;;;5128600;27;20055;-66
2021/01/25 06:08:20;;;;;;;1.20;0.57;;;;;;;;;;5129240;27;20071;-66
2021/01/25 06:10:54;;;;;;;0.20;0.20;;;;;;;;;;5130707;27;20038;-66
2021/01/25 06:13:22;;;;;;;0.30;0.30;;;;;;;;;;5129191;27;20538;-67
2021/01/25 06:15:49;;;;;;;0.68;0.68;;;;;;;;;;5130574;27;20493;-66
2021/01/25 06:18:17;;;;;;;0.43;0.38;;;;;;;;;;5129198;27;20079;-66
2021/01/25 06:20:43;;;;;;;0.30;0.30;;;;;;;;;;5131011;27;20430;-66
2021/01/25 06:23:09;;;;;;;0.30;0.30;;;;;;;;;;5130015;27;20440;-66
2021/01/25 06:25:36;;;;;;;0.40;0.40;;;;;;;;;;5127937;27;20031;-66
2021/01/25 06:28:02;;;;;;;0.68;0.30;;;;;;;;;;5129304;27;20027;-66
2021/01/25 06:30:29;;;;;;;0.60;0.45;;;;;;;;;;5129721;27;20118;-66
2021/01/25 06:32:55;;;;;;;0.40;0.40;;;;;;;;;;5130521;27;20489;-66
2021/01/25 06:35:22;;;;;;;0.20;0.20;;;;;;;;;;5128515;27;20023;-66
2021/01/25 06:37:52;;;;;;;0.52;0.25;;;;;;;;;;5118570;27;20535;-66
2021/01/25 06:40:23;;;;;;;0.20;0.20;;;;;;;;;;5108953;28;20026;-66
2021/01/25 06:42:49;;;;;;;0.30;0.30;;;;;;;;;;5109419;28;20020;-66
2021/01/25 06:45:15;;;;;;;0.32;0.32;;;;;;;;;;5108026;28;20121;-66
2021/01/25 06:47:41;;;;;;;0.77;0.30;;;;;;;;;;5105171;28;20088;-66
2021/01/25 06:50:08;;;;;;;0.25;0.25;;;;;;;;;;5106992;28;20485;-66
2021/01/25 06:52:38;;;;;;;1.38;0.38;;;;;;;;;;5107221;28;20424;-66
2021/01/25 06:55:06;;;;;;;0.52;0.50;;;;;;;;;;5122349;27;20066;-66
2021/01/25 06:57:38;;;;;;;1.23;1.13;;;;;;;;;;5106248;27;20038;-66
2021/01/25 07:00:18;;;;;;;0.93;0.82;;;;;;;;;;5109975;27;20177;-66
2021/01/25 07:03:00;;;;;;;1.02;1.00;;;;;;;;;;5101022;28;20120;-66
2021/01/25 07:05:30;;;;;;;2.90;1.17;;;;;;;;;;5110309;27;20055;-66
2021/01/25 07:08:14;;;;;;;3.30;2.28;;;;;;;;;;5109840;27;20050;-66
2021/01/25 07:10:48;;;;;;;1.80;1.40;;;;;;;;;;5095590;28;20749;-65
2021/01/25 07:13:14;;;;;;;0.82;0.82;;;;;;;;;;5099491;28;20537;-66
2021/01/25 07:15:40;;;;;;;1.90;1.58;;;;;;;;;;5114459;27;20686;-65
2021/01/25 07:18:06;;;;;;;1.70;1.30;;;;;;;;;;5094633;27;20031;-66
2021/01/25 07:20:32;;;;;;;1.23;1.10;;;;;;;;;;5099302;27;20031;-66
2021/01/25 07:22:59;;;;;;;1.20;1.10;;;;;;;;;;5095664;27;20039;-67
2021/01/25 07:25:28;;;;;;;1.77;1.50;;;;;;;;;;5096910;28;20030;-71
2021/01/25 07:28:04;;;;;;;2.10;1.50;;;;;;;;;;5101607;28;20093;-68
2021/01/25 07:30:32;;;;;;;2.95;1.73;;;;;;;;;;5102582;27;20026;-68
2021/01/25 07:33:01;;;;;;;1.73;1.63;;;;;;;;;;5093976;28;20518;-67
2021/01/25 07:35:28;;;;;;;1.95;1.58;;;;;;;;;;5098124;28;20689;-66
2021/01/25 07:37:54;;;;;;;1.35;1.20;;;;;;;;;;5095584;27;20088;-66
2021/01/25 07:40:23;;;;;;;2.00;1.65;;;;;;;;;;5098699;28;20804;-66
2021/01/25 07:42:50;;;;;;;1.80;1.08;;;;;;;;;;5104171;28;20039;-65
2021/01/25 07:45:17;;;;;;;1.65;1.48;;;;;;;;;;5102229;28;20090;-67
2021/01/25 07:47:46;;;;;;;2.55;1.85;;;;;;;;;;5106543;28;20039;-66
2021/01/25 07:50:13;;;;;;;2.83;1.70;;;;;;;;;;5090667;27;20205;-66
2021/01/25 07:52:39;;;;;;;2.50;1.70;;;;;;;;;;5096668;27;20027;-67
2021/01/25 07:55:12;;;;;;;4.50;2.25;;;;;;;;;;5101589;27;20150;-67
2021/01/25 07:57:38;;;;;;;3.08;1.70;;;;;;;;;;5104556;27;20803;-68
2021/01/25 08:00:20;;;;;;;3.65;2.60;;;;;;;;;;5101927;27;20031;-65
2021/01/25 08:02:57;;;;;;;5.22;2.65;;;;;;;;;;5096675;27;20020;-66
2021/01/25 08:05:24;;;;;;;5.57;2.65;;;;;;;;;;5096275;27;20047;-68
2021/01/25 08:07:51;;;;;;;2.22;1.63;;;;;;;;;;5113367;27;20045;-66
2021/01/25 08:10:17;;;;;;;3.80;1.90;;;;;;;;;;5113248;27;20071;-66
2021/01/25 08:12:46;;;;;;;3.83;1.73;;;;;;;;;;5109921;27;20130;-66
2021/01/25 08:15:14;;;;;;;5.50;2.60;;;;;;;;;;5114727;27;20038;-68
2021/01/25 08:17:42;;;;;;;6.03;2.30;;;;;;;;;;5115893;27;20031;-70
2021/01/25 08:20:09;;;;;;;2.10;1.55;;;;;;;;;;5116765;27;20038;-67
2021/01/25 08:22:42;;;;;;;3.63;1.88;;;;;;;;;;5115806;27;20576;-66
2021/01/25 08:25:08;;;;;;;2.05;1.83;;;;;;;;;;5116954;27;20095;-71
2021/01/25 08:27:36;;;;;;;6.22;2.60;;;;;;;;;;5121983;27;20607;-66
2021/01/25 08:30:06;;;;;;;2.40;1.65;;;;;;;;;;5121628;27;20106;-70
2021/01/25 08:32:40;;;;;;;2.25;2.15;;;;;;;;;;5122932;27;20031;-65
2021/01/25 08:35:07;;;;;;;10.45;3.10;;;;;;;;;;5120726;27;20070;-66
2021/01/25 08:37:34;;;;;;;3.05;2.13;;;;;;;;;;5122003;27;20031;-66
2021/01/25 08:40:12;;;;;;;4.35;1.90;;;;;;;;;;5122320;27;20039;-67
2021/01/25 08:42:39;;;;;;;6.32;2.22;;;;;;;;;;5122495;27;20047;-66
2021/01/25 08:45:08;;;;;;;4.93;2.30;;;;;;;;;;5119621;27;20039;-80
2021/01/25 08:47:35;;;;;;;2.08;1.98;;;;;;;;;;5116916;27;20118;-68
2021/01/25 08:50:01;;;;;;;2.35;1.88;;;;;;;;;;5122125;27;20748;-69
2021/01/25 08:52:30;;;;;;;3.58;2.22;;;;;;;;;;5122287;27;20031;-68
2021/01/25 08:55:07;;;;;;;7.45;2.63;;;;;;;;;;5121672;27;20528;-66
2021/01/25 08:57:34;;;;;;;4.13;3.63;;;;;;;;;;5119916;27;20699;-67
2021/01/25 09:00:14;;;;;;;5.32;2.72;;;;;;;;;;5123200;27;20500;-67
2021/01/25 09:02:41;;;;;;;3.05;2.38;;;;;;;;;;5122633;27;21162;-67
2021/01/25 09:05:07;;;;;;;2.85;2.25;;;;;;;;;;5122240;27;20354;-67
2021/01/25 09:07:33;;;;;;;2.05;1.85;;;;;;;;;;5121640;27;20039;-66
2021/01/25 09:09:59;;;;;;;4.05;2.45;;;;;;;;;;5123328;27;20063;-67
2021/01/25 09:12:25;;;;;;;6.88;2.33;;;;;;;;;;5121803;27;20023;-67
2021/01/25 09:14:51;;;;;;;4.80;2.90;;;;;;;;;;5121235;27;20023;-66
2021/01/25 09:17:17;;;;;;;3.47;2.85;;;;;;;;;;5122470;27;20027;-66
2021/01/25 09:19:43;;;;;;;2.90;2.38;;;;;;;;;;5121032;27;20019;-66
2021/01/25 09:22:11;;;;;;;2.97;2.65;;;;;;;;;;5122322;27;20578;-66
2021/01/25 09:24:38;;;;;;;2.42;2.17;;;;;;;;;;5120647;27;20069;-66
2021/01/25 09:27:04;;;;;;;3.47;2.80;;;;;;;;;;5123595;27;20030;-66
2021/01/25 09:29:30;;;;;;;6.13;3.05;;;;;;;;;;5119990;27;20035;-66
2021/01/25 09:31:56;;;;;;;4.05;2.38;;;;;;;;;;5122106;27;20045;-66
2021/01/25 09:34:24;;;;;;;5.15;3.10;;;;;;;;;;5120668;27;20547;-67
2021/01/25 09:36:50;;;;;;;2.67;2.47;;;;;;;;;;5122607;27;20035;-66
2021/01/25 09:39:17;;;;;;;3.17;2.58;;;;;;;;;;5120698;27;20545;-68
2021/01/25 09:41:45;;;;;;;3.15;2.85;;;;;;;;;;5122807;27;20062;-66
2021/01/25 09:44:12;;;;;;;6.13;3.30;;;;;;;;;;5118427;27;20023;-67
2021/01/25 09:46:39;;;;;;;5.60;3.75;;;;;;;;;;5121601;27;20123;-67
2021/01/25 09:49:05;;;;;;;7.50;3.33;;;;;;;;;;5121757;27;20647;-67
2021/01/25 09:51:31;;;;;;;3.42;2.80;;;;;;;;;;5118484;27;20035;-69
2021/01/25 09:53:57;;;;;;;5.45;4.28;;;;;;;;;;5118978;27;20119;-66
2021/01/25 09:56:23;;;;;;;5.20;3.53;;;;;;;;;;5118850;27;20031;-67
2021/01/25 09:58:49;;;;;;;5.35;4.28;;;;;;;;;;5121191;27;20027;-67
2021/01/25 10:01:16;;;;;;;4.80;4.40;;;;;;;;;;5123594;27;20054;-67
2021/01/25 10:03:42;;;;;;;9.40;5.38;;;;;;;;;;5120543;27;20031;-67
2021/01/25 10:06:08;;;;;;;5.70;4.78;;;;;;;;;;5121869;27;20130;-67
2021/01/25 10:08:36;;;;;;;5.80;4.25;;;;;;;;;;5121331;27;21359;-67
2021/01/25 10:11:03;;;;;;;5.47;4.97;;;;;;;;;;5121601;27;20027;-66
2021/01/25 10:13:29;;;;;;;6.55;5.65;;;;;;;;;;5120614;27;20121;-67
2021/01/25 10:15:55;;;;;;;4.80;4.40;;;;;;;;;;5123670;27;20031;-67
2021/01/25 10:18:21;;;;;;;4.55;4.10;;;;;;;;;;5121083;27;20037;-67
2021/01/25 10:20:47;;;;;;;6.75;4.88;;;;;;;;;;5121883;27;20027;-67
2021/01/25 10:23:13;;;;;;;6.55;4.20;;;;;;;;;;5121868;27;20438;-68
2021/01/25 10:25:39;;;;;;;5.30;4.10;;;;;;;;;;5121188;27;20030;-67
2021/01/25 10:28:06;;;;;;;6.43;4.43;;;;;;;;;;5122314;27;20572;-67
2021/01/25 10:30:32;;;;;;;4.00;3.60;;;;;;;;;;5121874;27;20031;-67
2021/01/25 10:32:59;;;;;;;5.25;3.80;;;;;;;;;;5122268;27;20042;-67
2021/01/25 10:35:26;;;;;;;4.57;4.00;;;;;;;;;;5119476;27;20027;-67
2021/01/25 10:37:52;;;;;;;4.93;4.22;;;;;;;;;;5123043;27;20030;-67
2021/01/25 10:40:18;;;;;;;4.32;3.45;;;;;;;;;;5122322;27;20023;-67
2021/01/25 10:42:45;;;;;;;4.25;3.85;;;;;;;;;;5122590;27;20072;-66
2021/01/25 10:45:12;;;;;;;4.65;3.33;;;;;;;;;;5120243;27;20030;-67
2021/01/25 10:47:39;;;;;;;5.95;3.95;;;;;;;;;;5121757;27;20035;-66
2021/01/25 10:50:07;;;;;;;4.60;3.15;;;;;;;;;;5121587;27;20035;-67
2021/01/25 10:52:34;;;;;;;4.35;2.95;;;;;;;;;;5121166;27;20796;-67
2021/01/25 10:55:00;;;;;;;2.70;2.42;;;;;;;;;;5119857;27;20027;-67
2021/01/25 10:57:26;;;;;;;8.85;3.22;;;;;;;;;;5120590;27;20023;-67
2021/01/25 10:59:52;;;;;;;3.22;2.70;;;;;;;;;;5122117;27;20028;-67
2021/01/25 11:02:19;;;;;;;3.10;2.53;;;;;;;;;;5121833;27;20027;-67
2021/01/25 11:04:45;;;;;;;4.30;3.25;;;;;;;;;;5120097;27;20035;-67
2021/01/25 11:07:11;;;;;;;3.08;2.53;;;;;;;;;;5120723;27;20118;-70
2021/01/25 11:09:37;;;;;;;3.85;3.03;;;;;;;;;;5121918;27;20031;-66
2021/01/25 11:12:04;;;;;;;4.68;3.15;;;;;;;;;;5122685;27;20485;-66
2021/01/25 11:14:30;;;;;;;2.75;2.10;;;;;;;;;;5120153;27;20039;-67
2021/01/25 11:16:56;;;;;;;2.97;2.20;;;;;;;;;;5122398;27;20125;-66
2021/01/25 11:19:22;;;;;;;2.78;2.38;;;;;;;;;;5120561;27;20499;-67
2021/01/25 11:21:48;;;;;;;3.40;2.28;;;;;;;;;;5118197;27;20036;-66
2021/01/25 11:24:15;;;;;;;2.95;2.75;;;;;;;;;;5120724;27;20126;-66
2021/01/25 11:26:41;;;;;;;4.60;2.42;;;;;;;;;;5121727;27;20171;-68
2021/01/25 11:29:08;;;;;;;2.75;2.25;;;;;;;;;;5121080;27;20042;-69
2021/01/25 11:31:34;;;;;;;1.73;1.63;;;;;;;;;;5120035;27;20058;-66
2021/01/25 11:34:00;;;;;;;2.40;2.05;;;;;;;;;;5120806;27;20035;-66
2021/01/25 11:36:27;;;;;;;3.50;1.75;;;;;;;;;;5121602;27;20023;-66
2021/01/25 11:38:53;;;;;;;3.83;1.75;;;;;;;;;;5120566;27;20114;-67
2021/01/25 11:41:19;;;;;;;2.22;1.92;;;;;;;;;;5122152;27;20072;-66
2021/01/25 11:43:45;;;;;;;1.73;1.63;;;;;;;;;;5122127;28;20084;-66
2021/01/25 11:46:12;;;;;;;2.38;2.17;;;;;;;;;;5120892;28;20038;-66
2021/01/25 11:48:39;;;;;;;1.60;1.50;;;;;;;;;;5122893;28;20046;-67
2021/01/25 11:51:05;;;;;;;2.08;1.92;;;;;;;;;;5122690;28;20088;-67
2021/01/25 11:53:31;;;;;;;2.42;2.08;;;;;;;;;;5121997;28;20031;-67
2021/01/25 11:55:58;;;;;;;3.33;2.15;;;;;;;;;;5121793;28;20469;-67
2021/01/25 11:58:24;;;;;;;2.20;2.00;;;;;;;;;;5121711;28;20452;-67
2021/01/25 12:00:51;;;;;;;2.67;1.85;;;;;;;;;;5122902;28;20169;-67
2021/01/25 12:03:17;;;;;;;1.70;1.60;;;;;;;;;;5119978;28;20031;-67
2021/01/25 12:05:43;;;;;;;2.45;2.22;;;;;;;;;;5120414;28;20038;-67
2021/01/25 12:08:11;;;;;;;1.83;1.73;;;;;;;;;;5122458;28;20473;-67
2021/01/25 12:10:37;;;;;;;3.15;2.45;;;;;;;;;;5122129;28;20138;-67
2021/01/25 12:13:03;;;;;;;1.75;1.58;;;;;;;;;;5123497;28;20122;-67
2021/01/25 12:15:29;;;;;;;4.05;1.70;;;;;;;;;;5120050;28;20042;-67
2021/01/25 12:17:55;;;;;;;2.10;1.40;;;;;;;;;;5123686;28;20027;-67
2021/01/25 12:20:21;;;;;;;2.45;2.25;;;;;;;;;;5121842;28;20091;-67
2021/01/25 12:22:48;;;;;;;1.83;1.52;;;;;;;;;;5121332;28;20080;-67
2021/01/25 12:25:14;;;;;;;1.52;1.42;;;;;;;;;;5120780;28;20035;-67
2021/01/25 12:27:40;;;;;;;2.08;1.88;;;;;;;;;;5121232;28;20045;-68
2021/01/25 12:30:07;;;;;;;2.40;1.80;;;;;;;;;;5122614;28;20499;-66
2021/01/25 12:32:33;;;;;;;1.92;1.33;;;;;;;;;;5120185;27;20799;-66
2021/01/25 12:35:00;;;;;;;9.00;1.75;;;;;;;;;;5119918;27;20065;-67
2021/01/25 12:37:26;;;;;;;2.72;2.13;;;;;;;;;;5117059;27;20480;-67
2021/01/25 12:39:52;;;;;;;3.90;2.50;;;;;;;;;;5113155;27;20044;-67
2021/01/25 12:42:18;;;;;;;2.03;1.58;;;;;;;;;;5122740;27;20110;-68
2021/01/25 12:44:44;;;;;;;2.55;1.27;;;;;;;;;;5119347;27;20110;-69
2021/01/25 12:47:10;;;;;;;2.55;1.27;;;;;;;;;;5117724;27;20118;-68
2021/01/25 12:49:36;;;;;;;3.88;1.42;;;;;;;;;;5121456;27;20092;-69
2021/01/25 12:52:02;;;;;;;1.70;1.42;;;;;;;;;;5123985;27;20031;-68
2021/01/25 12:54:28;;;;;;;1.30;1.05;;;;;;;;;;5122350;27;20110;-68
2021/01/25 12:56:55;;;;;;;1.05;0.95;;;;;;;;;;5105030;27;20035;-68
2021/01/25 12:59:21;;;;;;;1.33;1.08;;;;;;;;;;5121951;27;20384;-69
2021/01/25 13:01:47;;;;;;;1.30;0.93;;;;;;;;;;5123633;27;20100;-67
2021/01/25 13:04:13;;;;;;;2.33;1.23;;;;;;;;;;5122578;27;20032;-67
2021/01/25 13:06:40;;;;;;;1.17;1.08;;;;;;;;;;5123405;27;21618;-67
2021/01/25 13:09:06;;;;;;;1.67;0.88;;;;;;;;;;5124328;27;20035;-66
2021/01/25 13:11:33;;;;;;;0.80;0.80;;;;;;;;;;5123343;27;20039;-66
2021/01/25 13:13:59;;;;;;;1.15;0.90;;;;;;;;;;5122314;27;20027;-66
2021/01/25 13:16:28;;;;;;;1.15;0.70;;;;;;;;;;5100173;27;20470;-67
2021/01/25 13:18:54;;;;;;;0.57;0.40;;;;;;;;;;5119892;27;21075;-67
2021/01/25 13:21:21;;;;;;;0.85;0.85;;;;;;;;;;5117154;27;20031;-67
2021/01/25 13:23:47;;;;;;;0.82;0.60;;;;;;;;;;5119118;27;20537;-67
2021/01/25 13:26:14;;;;;;;1.00;0.88;;;;;;;;;;5121325;27;20032;-67
2021/01/25 13:28:40;;;;;;;2.13;0.65;;;;;;;;;;5123048;27;20035;-67
2021/01/25 13:31:06;;;;;;;0.77;0.60;;;;;;;;;;5122413;27;22032;-67
2021/01/25 13:33:32;;;;;;;0.43;0.43;;;;;;;;;;5121616;27;20151;-67
2021/01/25 13:35:58;;;;;;;0.80;0.80;;;;;;;;;;5119683;27;20027;-68
2021/01/25 13:38:24;;;;;;;0.80;0.80;;;;;;;;;;5122766;27;20027;-67
2021/01/25 13:40:50;;;;;;;3.53;1.00;;;;;;;;;;5123187;27;20035;-66
2021/01/25 13:43:16;;;;;;;2.67;1.33;;;;;;;;;;5123147;27;20054;-67
2021/01/25 13:45:43;;;;;;;0.60;0.50;;;;;;;;;;5119978;27;20035;-67
2021/01/25 13:48:10;;;;;;;0.85;0.60;;;;;;;;;;5104495;27;20465;-69
2021/01/25 13:50:37;;;;;;;2.17;0.47;;;;;;;;;;5122496;27;20035;-66
2021/01/25 13:53:04;;;;;;;0.30;0.30;;;;;;;;;;5122321;27;20166;-66
2021/01/25 13:55:31;;;;;;;0.47;0.35;;;;;;;;;;5120657;27;20037;-66
2021/01/25 13:57:57;;;;;;;0.50;0.50;;;;;;;;;;5122377;27;20042;-67
2021/01/25 14:00:25;;;;;;;0.75;0.75;;;;;;;;;;5115289;27;20451;-66
2021/01/25 14:02:51;;;;;;;0.90;0.60;;;;;;;;;;5109954;27;20039;-69
2021/01/25 14:05:17;;;;;;;1.60;0.40;;;;;;;;;;5117763;27;20478;-73
2021/01/25 14:07:43;;;;;;;4.90;1.20;;;;;;;;;;5108600;27;20032;-67
2021/01/25 14:10:10;;;;;;;1.02;0.60;;;;;;;;;;5117001;27;20031;-67
2021/01/25 14:12:36;;;;;;;1.15;0.65;;;;;;;;;;5121317;27;20627;-67
2021/01/25 14:15:03;;;;;;;1.20;0.40;;;;;;;;;;5120838;27;21315;-67
2021/01/25 14:17:29;;;;;;;0.75;0.45;;;;;;;;;;5120418;27;20092;-66
2021/01/25 14:19:55;;;;;;;0.30;0.30;;;;;;;;;;5119598;27;20050;-67
2021/01/25 14:22:22;;;;;;;1.20;0.93;;;;;;;;;;5119304;27;20027;-67
2021/01/25 14:24:48;;;;;;;1.13;0.88;;;;;;;;;;5120505;27;20041;-66
2021/01/25 14:27:14;;;;;;;0.43;0.43;;;;;;;;;;5121873;27;20034;-67
2021/01/25 14:29:40;;;;;;;1.63;0.40;;;;;;;;;;5121964;27;20045;-67
2021/01/25 14:32:11;;;;;;;0.30;0.30;;;;;;;;;;5122682;27;20039;-67
2021/01/25 14:34:38;;;;;;;0.30;0.30;;;;;;;;;;5118593;27;20168;-66
2021/01/25 14:37:04;;;;;;;0.40;0.32;;;;;;;;;;5121511;27;20078;-67
2021/01/25 14:39:31;;;;;;;2.58;0.38;;;;;;;;;;5122060;27;20039;-67
2021/01/25 14:41:58;;;;;;;0.55;0.40;;;;;;;;;;5122768;27;20027;-67